createdAt,value
2023-08-18T00:16:05.580Z,17.25
2023-08-18T00:36:05.499Z,17.25
2023-08-18T01:36:05.443Z,17.25
2023-08-18T02:56:05.326Z,17.24
2023-08-18T03:16:05.344Z,17.24
2023-08-18T05:36:05.104Z,17.24
2023-08-18T05:56:05.105Z,17.24
2023-08-18T06:16:05.151Z,17.23
2023-08-18T06:36:05.026Z,17.23
2023-08-18T06:56:05.007Z,17.23
2023-08-18T07:16:05.090Z,17.22
2023-08-18T07:56:04.947Z,17.21
2023-08-18T08:16:04.925Z,17.21
2023-08-18T08:36:04.868Z,17.2
2023-08-18T09:16:04.795Z,17.19
2023-08-18T09:36:04.775Z,17.19
2023-08-18T09:56:04.740Z,17.19
2023-08-18T10:16:04.717Z,17.18
2023-08-18T10:36:04.405Z,17.18
2023-08-18T10:56:04.648Z,17.18
2023-08-18T11:16:04.705Z,17.18
2023-08-18T11:36:04.592Z,17.18
2023-08-18T11:56:04.625Z,17.18
2023-08-18T12:16:04.581Z,17.18
2023-08-18T12:36:04.541Z,17.18
2023-08-18T12:56:04.530Z,17.19
2023-08-18T13:16:04.528Z,17.19
2023-08-18T13:36:04.510Z,17.21
2023-08-18T13:56:04.492Z,17.21
2023-08-18T14:16:04.510Z,17.22
2023-08-18T14:36:04.482Z,17.23
2023-08-18T14:56:04.481Z,17.24
2023-08-18T15:16:04.471Z,17.24
2023-08-18T15:36:04.435Z,17.25
2023-08-18T15:56:04.430Z,17.25
2023-08-18T16:16:04.450Z,17.27
2023-08-18T16:36:04.398Z,17.29
2023-08-18T16:56:04.361Z,17.32
2023-08-18T17:16:04.421Z,17.34
2023-08-18T17:56:04.278Z,17.35
2023-08-18T18:16:04.250Z,17.36
2023-08-18T18:36:04.217Z,17.38
2023-08-18T19:36:04.137Z,17.45
2023-08-18T19:56:04.088Z,17.45
2023-08-18T20:16:04.073Z,17.45
2023-08-18T20:36:04.034Z,17.46
2023-08-18T20:56:04.004Z,17.49
2023-08-18T21:16:04.006Z,17.51
2023-08-18T21:56:03.937Z,17.54
2023-08-18T22:16:03.937Z,17.55
2023-08-18T22:36:03.866Z,17.55
2023-08-18T22:56:03.860Z,17.55
2023-08-18T23:16:03.805Z,17.56
2023-08-18T23:36:03.796Z,17.56
2023-08-18T23:56:03.759Z,17.57
